.
WxDataArchive / Data Records for 2011-12-01
2011-11-30 December 2011 2011-12-02

Data Records for Thursday, 01 December 2011

Time	Temp	Chill	HIndex	Humid	Dewpt	 Wind 	HiWind	WindDir	Rain 	Barom 
-----	----	-----	------	-----	-----	------	------	-------	-----	----- 
00:00	27.0	27.0	27.0	91	24.7	0	0	---	0.00	30.212 
00:05	27.0	27.0	27.0	91	24.7	0	1	248	0.00	30.212 
00:10	27.0	27.0	27.0	91	24.7	0	0	---	0.00	30.212 
00:15	26.9	26.9	26.9	91	24.6	0	0	---	0.00	30.211 
00:20	26.7	26.7	26.7	91	24.4	0	0	---	0.00	30.211 
00:25	26.4	26.4	26.4	91	24.1	0	0	---	0.00	30.211 
00:30	26.3	26.3	26.3	91	24.0	0	0	---	0.00	30.218 
00:35	26.1	26.1	26.1	91	23.8	0	0	---	0.00	30.218 
00:40	26.0	26.0	26.0	91	23.7	0	0	---	0.00	30.218 
00:45	26.0	26.0	26.0	91	23.7	0	0	---	0.00	30.219 
00:50	26.0	26.0	26.0	91	23.7	0	0	---	0.00	30.219 
00:55	26.0	26.0	26.0	91	23.7	0	0	---	0.00	30.219 
01:00	25.8	25.8	25.8	91	23.5	0	0	---	0.00	30.222 
01:05	25.7	25.7	25.7	91	23.4	0	0	---	0.00	30.222 
01:10	25.6	25.6	25.6	91	23.3	0	0	---	0.00	30.222 
01:15	25.4	25.4	25.4	91	23.1	0	0	---	0.00	30.219 
01:20	25.3	25.3	25.3	91	23.0	0	0	---	0.00	30.219 
01:25	25.3	25.3	25.3	91	23.0	0	0	---	0.00	30.219 
01:30	25.4	25.4	25.4	91	23.1	0	0	---	0.00	30.220 
01:35	25.4	25.4	25.4	91	23.1	0	0	---	0.00	30.220 
01:40	25.4	25.4	25.4	92	23.4	0	0	---	0.00	30.220 
01:45	25.6	25.6	25.6	92	23.6	0	0	---	0.00	30.234 
01:50	25.6	25.6	25.6	92	23.6	0	0	---	0.00	30.234 
01:55	25.7	25.7	25.7	92	23.7	0	0	---	0.00	30.234 
02:00	25.6	25.6	25.6	92	23.6	0	0	---	0.00	30.239 
02:05	25.6	25.6	25.6	92	23.6	0	0	---	0.00	30.239 
02:10	25.4	25.4	25.4	92	23.4	0	0	---	0.00	30.239 
02:15	25.1	25.1	25.1	91	22.9	0	0	---	0.00	30.239 
02:20	25.0	25.0	25.0	91	22.8	0	0	---	0.00	30.239 
02:25	24.8	24.8	24.8	92	22.8	0	0	---	0.00	30.239 
02:30	24.7	24.7	24.7	92	22.7	0	0	---	0.00	30.245 
02:35	24.4	24.4	24.4	92	22.4	0	0	---	0.00	30.245 
02:40	24.4	24.4	24.4	91	22.2	0	0	---	0.00	30.245 
02:45	24.2	24.2	24.2	92	22.2	0	0	---	0.00	30.247 
02:50	24.1	24.1	24.1	92	22.1	0	0	---	0.00	30.247 
02:55	24.1	24.1	24.1	92	22.1	0	0	---	0.00	30.247 
03:00	24.1	24.1	24.1	92	22.1	0	0	---	0.00	30.249 
03:05	24.1	24.1	24.1	92	22.1	0	0	---	0.00	30.249 
03:10	24.2	24.2	24.2	92	22.2	0	0	---	0.00	30.249 
03:15	24.4	24.4	24.4	92	22.4	0	0	---	0.00	30.248 
03:20	24.4	24.4	24.4	92	22.4	0	0	---	0.00	30.248 
03:25	24.5	24.5	24.5	92	22.5	0	0	---	0.00	30.248 
03:30	24.7	24.7	24.7	92	22.7	0	0	---	0.00	30.261 
03:35	24.7	24.7	24.7	92	22.7	0	0	---	0.00	30.261 
03:40	24.5	24.5	24.5	92	22.5	0	0	---	0.00	30.261 
03:45	24.4	24.4	24.4	92	22.4	0	0	---	0.00	30.262 
03:50	24.2	24.2	24.2	92	22.2	0	0	---	0.00	30.262 
03:55	24.1	24.1	24.1	92	22.1	0	0	---	0.00	30.262 
04:00	23.9	23.9	23.9	92	21.9	0	0	---	0.00	30.264 
04:05	23.8	23.8	23.8	92	21.8	0	0	---	0.00	30.264 
04:10	23.6	23.6	23.6	92	21.6	0	0	---	0.00	30.264 
04:15	23.5	23.5	23.5	92	21.5	0	0	---	0.00	30.267 
04:20	23.3	23.3	23.3	92	21.3	0	0	---	0.00	30.267 
04:25	23.2	23.2	23.2	92	21.2	0	0	---	0.00	30.267 
04:30	23.0	23.0	23.0	92	21.0	0	0	---	0.00	30.268 
04:35	22.9	22.9	22.9	92	20.9	0	0	---	0.00	30.268 
04:40	22.9	22.9	22.9	92	20.9	0	0	---	0.00	30.268 
04:45	22.7	22.7	22.7	92	20.7	0	0	---	0.00	30.268 
04:50	22.5	22.5	22.5	92	20.5	0	0	---	0.00	30.268 
04:55	22.4	22.4	22.4	92	20.4	0	0	---	0.00	30.268 
05:00	22.4	22.4	22.4	92	20.4	0	0	---	0.00	30.280 
05:05	22.4	22.4	22.4	92	20.4	0	0	---	0.00	30.280 
05:10	22.4	22.4	22.4	92	20.4	0	0	---	0.00	30.280 
05:15	22.2	22.2	22.2	92	20.2	0	0	---	0.00	30.277 
05:20	22.2	22.2	22.2	92	20.2	0	0	---	0.00	30.277 
05:25	22.1	22.1	22.1	92	20.1	0	0	---	0.00	30.277 
05:30	22.2	22.2	22.2	92	20.2	0	0	---	0.00	30.290 
05:35	22.2	22.2	22.2	92	20.2	0	0	---	0.00	30.290 
05:40	22.1	22.1	22.1	92	20.1	0	0	---	0.00	30.290 
05:45	22.1	22.1	22.1	92	20.1	0	0	---	0.00	30.295 
05:50	22.1	22.1	22.1	92	20.1	0	0	---	0.00	30.295 
05:55	21.9	21.9	21.9	92	19.9	0	0	---	0.00	30.295 
06:00	21.8	21.8	21.8	92	19.8	0	0	---	0.00	30.300 
06:05	21.8	21.8	21.8	92	19.8	0	0	---	0.00	30.300 
06:10	21.8	21.8	21.8	92	19.8	0	0	---	0.00	30.300 
06:15	21.6	21.6	21.6	92	19.6	0	0	---	0.00	30.301 
06:20	21.8	21.8	21.8	92	19.8	0	0	---	0.00	30.301 
06:25	21.9	21.9	21.9	92	19.9	0	0	---	0.00	30.301 
06:30	22.1	22.1	22.1	92	20.1	0	0	---	0.00	30.303 
06:35	22.1	22.1	22.1	92	20.1	0	0	---	0.00	30.303 
06:40	22.2	22.2	22.2	92	20.2	0	0	---	0.00	30.303 
06:45	22.2	22.2	22.2	92	20.2	0	0	---	0.00	30.315 
06:50	22.4	22.4	22.4	92	20.4	0	0	---	0.00	30.315 
06:55	22.4	22.4	22.4	92	20.4	0	0	---	0.00	30.315 
07:00	22.4	22.4	22.4	92	20.4	0	0	---	0.00	30.318 
07:05	22.2	22.2	22.2	92	20.2	0	0	---	0.00	30.318 
07:10	22.1	22.1	22.1	92	20.1	0	0	---	0.00	30.318 
07:15	21.9	21.9	21.9	92	19.9	0	0	---	0.00	30.319 
07:20	21.8	21.8	21.8	92	19.8	0	0	---	0.00	30.319 
07:25	21.8	21.8	21.8	92	19.8	0	0	---	0.00	30.319 
07:30	21.8	21.8	21.8	92	19.8	0	0	---	0.00	30.318 
07:35	21.8	21.8	21.8	92	19.8	0	0	---	0.00	30.318 
07:40	21.8	21.8	21.8	92	19.8	0	0	---	0.00	30.318 
07:45	21.8	21.8	21.8	92	19.8	0	0	---	0.00	30.321 
07:50	21.8	21.8	21.8	92	19.8	0	0	---	0.00	30.321 
07:55	21.8	21.8	21.8	92	19.8	0	0	---	0.00	30.321 
08:00	21.9	21.9	21.9	92	19.9	0	0	---	0.00	30.334 
08:05	21.9	21.9	21.9	92	19.9	0	0	---	0.00	30.334 
08:10	21.9	21.9	21.9	92	19.9	0	0	---	0.00	30.334 
08:15	21.9	21.9	21.9	92	19.9	0	0	---	0.00	30.338 
08:20	21.9	21.9	21.9	92	19.9	0	0	---	0.00	30.338 
08:25	22.2	22.2	22.2	93	20.5	0	1	248	0.00	30.338 
08:30	22.9	22.9	22.9	93	21.2	0	0	---	0.00	30.333 
08:35	23.6	23.6	23.6	93	21.9	0	0	---	0.00	30.333 
08:40	24.1	24.1	24.1	93	22.4	0	0	---	0.00	30.333 
08:45	24.5	24.5	24.5	93	22.8	0	0	---	0.00	30.335 
08:50	25.1	25.1	25.1	94	23.6	0	1	248	0.00	30.335 
08:55	25.6	25.6	25.6	93	23.9	0	1	248	0.00	30.335 
09:00	26.0	26.0	26.0	94	24.5	0	0	---	0.00	30.337 
09:05	26.4	26.4	26.4	93	24.7	0	1	248	0.00	30.337 
09:10	26.7	26.7	26.7	93	25.0	0	1	248	0.00	30.337 
09:15	27.0	27.0	27.0	93	25.3	0	1	248	0.00	30.337 
09:20	27.2	27.2	27.2	93	25.4	0	1	248	0.00	30.337 
09:25	27.5	27.5	27.5	93	25.7	0	3	248	0.00	30.337 
09:30	27.8	27.8	27.8	93	26.0	0	2	248	0.00	30.341 
09:35	28.4	28.4	28.4	93	26.6	0	1	248	0.00	30.341 
09:40	28.8	28.8	28.8	93	27.0	0	4	248	0.00	30.341 
09:45	29.3	29.3	29.3	93	27.5	0	1	248	0.00	30.346 
09:50	29.7	29.7	29.7	93	27.9	1	3	248	0.00	30.346 
09:55	30.4	30.4	30.4	93	28.6	0	2	248	0.00	30.346 
10:00	31.0	31.0	31.0	92	29.0	0	3	270	0.00	30.343 
10:05	31.3	31.3	31.3	91	29.0	0	3	270	0.00	30.343 
10:10	31.6	31.6	31.6	89	28.7	0	3	270	0.00	30.343 
10:15	31.9	31.9	31.9	88	28.8	0	2	270	0.00	30.351 
10:20	32.2	32.2	32.2	86	28.5	0	2	270	0.00	30.351 
10:25	32.4	32.4	32.4	84	28.1	0	2	270	0.00	30.351 
10:30	32.5	32.5	32.5	82	27.6	0	2	270	0.00	30.347 
10:35	32.8	32.8	32.8	81	27.6	0	3	248	0.00	30.347 
10:40	33.1	33.1	33.1	80	27.6	0	3	248	0.00	30.347 
10:45	33.2	33.2	33.2	78	27.1	0	3	270	0.00	30.348 
10:50	33.5	33.5	33.5	77	27.1	0	2	248	0.00	30.348 
10:55	33.7	33.7	33.7	77	27.3	1	4	248	0.00	30.348 
11:00	34.0	34.0	34.0	76	27.2	1	4	270	0.00	30.343 
11:05	34.3	34.3	34.3	75	27.2	0	1	248	0.00	30.343 
11:10	34.6	34.6	34.6	75	27.5	0	2	270	0.00	30.343 
11:15	34.9	34.9	34.9	71	26.5	0	3	248	0.00	30.344 
11:20	35.2	35.2	35.2	73	27.4	1	3	248	0.00	30.344 
11:25	35.3	35.3	35.3	72	27.2	1	4	225	0.00	30.344 
11:30	35.5	35.5	35.5	71	27.0	1	3	248	0.00	30.342 
11:35	35.9	35.9	35.9	71	27.4	1	2	248	0.00	30.342 
11:40	35.9	35.9	35.9	69	26.7	1	4	248	0.00	30.342 
11:45	35.9	35.9	35.9	69	26.7	1	4	248	0.00	30.333 
11:50	36.0	36.0	36.0	67	26.1	1	4	248	0.00	30.333 
11:55	36.2	36.2	36.2	66	26.0	1	4	248	0.00	30.333 
12:00	36.3	36.3	36.3	66	26.0	1	4	248	0.00	30.328 
12:05	36.5	36.5	36.5	64	25.5	1	6	248	0.00	30.328 
12:10	36.9	36.9	36.9	65	26.3	0	3	248	0.00	30.328 
12:15	37.2	37.2	37.2	65	26.5	1	4	90	0.00	30.320 
12:20	37.3	37.3	37.3	65	26.6	1	3	90	0.00	30.320 
12:25	37.3	37.3	37.3	64	26.3	1	3	292	0.00	30.320 
12:30	37.3	37.3	37.3	65	26.6	0	2	315	0.00	30.315 
12:35	37.6	37.6	37.6	65	26.9	0	3	248	0.00	30.315 
12:40	37.9	37.9	37.9	66	27.6	0	2	248	0.00	30.315 
12:45	38.2	38.2	38.2	65	27.5	0	3	248	0.00	30.310 
12:50	38.2	38.2	38.2	64	27.1	1	3	225	0.00	30.310 
12:55	38.2	38.2	38.2	63	26.7	1	3	248	0.00	30.310 
13:00	38.2	38.2	38.2	62	26.3	1	4	248	0.01	30.309 
13:05	38.2	38.2	38.2	62	26.3	1	3	248	0.00	30.309 
13:10	38.2	38.2	38.2	62	26.3	1	3	248	0.00	30.309 
13:15	38.2	38.2	38.2	63	26.7	0	2	248	0.00	30.308 
13:20	38.3	38.3	38.3	62	26.4	2	5	248	0.00	30.308 
13:25	38.3	38.3	38.3	62	26.4	1	3	248	0.00	30.308 
13:30	38.3	38.3	38.3	62	26.4	1	3	248	0.00	30.306 
13:35	38.3	38.3	38.3	62	26.4	1	3	248	0.01	30.306 
13:40	38.3	38.3	38.3	63	26.8	0	4	248	0.00	30.306 
13:45	38.3	38.3	38.3	62	26.4	1	2	248	0.00	30.296 
13:50	38.5	38.5	38.5	64	27.4	0	2	248	0.00	30.296 
13:55	38.5	38.5	38.5	63	27.0	0	2	248	0.00	30.296 
14:00	38.5	38.5	38.5	64	27.4	0	2	22	0.00	30.301 
14:05	38.6	38.6	38.6	63	27.1	0	2	22	0.00	30.301 
14:10	38.3	38.3	38.3	63	26.8	1	3	135	0.00	30.301 
14:15	38.3	38.3	38.3	64	27.2	0	3	135	0.00	30.297 
14:20	38.5	38.5	38.5	63	27.0	0	2	270	0.01	30.297 
14:25	38.8	38.8	38.8	63	27.3	1	4	270	0.00	30.297 
14:30	38.9	38.9	38.9	61	26.6	1	4	248	0.00	30.303 
14:35	38.9	38.9	38.9	61	26.6	2	5	248	0.00	30.303 
14:40	39.1	39.1	39.1	62	27.2	0	3	248	0.00	30.303 
14:45	39.2	39.2	39.2	61	26.9	2	6	248	0.00	30.306 
14:50	39.1	39.1	39.1	60	26.4	1	4	248	0.00	30.306 
14:55	38.9	38.9	38.9	61	26.6	1	3	248	0.01	30.306 
15:00	38.8	38.8	38.8	63	27.3	0	1	248	0.00	30.296 
15:05	38.8	38.8	38.8	63	27.3	0	3	248	0.00	30.296 
15:10	38.6	38.6	38.6	64	27.5	0	3	248	0.00	30.296 
15:15	38.5	38.5	38.5	64	27.4	1	3	0	0.00	30.293 
15:20	38.5	38.5	38.5	65	27.8	0	3	0	0.00	30.293 
15:25	38.6	38.6	38.6	65	27.9	0	3	248	0.00	30.293 
15:30	38.8	38.8	38.8	65	28.1	0	2	248	0.00	30.294 
15:35	38.3	38.3	38.3	64	27.2	1	3	68	0.00	30.294 
15:40	38.2	38.2	38.2	65	27.5	0	3	90	0.01	30.294 
15:45	38.0	38.0	38.0	65	27.3	0	2	90	0.00	30.295 
15:50	38.2	38.2	38.2	65	27.5	0	2	90	0.00	30.295 
15:55	38.2	38.2	38.2	65	27.5	0	1	90	0.00	30.295 
16:00	38.0	38.0	38.0	65	27.3	0	1	90	0.00	30.296 
16:05	38.0	38.0	38.0	67	28.0	0	1	90	0.00	30.296 
16:10	37.8	37.8	37.8	66	27.5	0	1	90	0.00	30.296 
16:15	37.5	37.5	37.5	67	27.6	0	2	90	0.00	30.297 
16:20	37.2	37.2	37.2	68	27.6	0	1	90	0.01	30.297 
16:25	37.0	37.0	37.0	69	27.8	0	2	90	0.00	30.297 
16:30	36.9	36.9	36.9	69	27.7	0	2	90	0.00	30.312 
16:35	36.8	36.8	36.8	69	27.6	0	3	90	0.00	30.312 
16:40	36.6	36.6	36.6	69	27.4	0	1	248	0.00	30.312 
16:45	36.5	36.5	36.5	70	27.7	0	2	248	0.00	30.312 
16:50	36.3	36.3	36.3	69	27.1	0	1	248	0.00	30.312 
16:55	36.2	36.2	36.2	70	27.4	0	1	248	0.00	30.312 
17:00	36.0	36.0	36.0	71	27.5	0	2	248	0.00	30.313 
17:05	35.8	35.8	35.8	71	27.3	0	2	248	0.00	30.313 
17:10	35.5	35.5	35.5	72	27.4	0	0	---	0.00	30.313 
17:15	35.3	35.3	35.3	72	27.2	0	1	248	0.00	30.311 
17:20	35.0	35.0	35.0	73	27.2	0	0	---	0.00	30.311 
17:25	34.7	34.7	34.7	73	26.9	0	0	---	0.00	30.311 
17:30	34.4	34.4	34.4	74	27.0	0	1	248	0.00	30.313 
17:35	34.1	34.1	34.1	74	26.7	0	0	---	0.00	30.313 
17:40	33.8	33.8	33.8	75	26.7	0	0	---	0.00	30.313 
17:45	33.5	33.5	33.5	76	26.8	0	0	---	0.00	30.314 
17:50	33.2	33.2	33.2	76	26.5	0	0	---	0.00	30.314 
17:55	32.9	32.9	32.9	77	26.5	0	0	---	0.00	30.314 
18:00	32.8	32.8	32.8	77	26.4	0	0	---	0.00	30.314 
18:05	32.5	32.5	32.5	78	26.4	0	0	---	0.00	30.314 
18:10	32.2	32.2	32.2	78	26.1	0	0	---	0.00	30.314 
18:15	31.9	31.9	31.9	79	26.1	0	0	---	0.00	30.310 
18:20	31.6	31.6	31.6	80	26.2	0	0	---	0.00	30.310 
18:25	31.3	31.3	31.3	81	26.2	0	0	---	0.00	30.310 
18:30	31.2	31.2	31.2	81	26.1	0	0	---	0.00	30.314 
18:35	30.9	30.9	30.9	81	25.8	0	0	---	0.00	30.314 
18:40	30.7	30.7	30.7	81	25.6	0	0	---	0.00	30.314 
18:45	30.6	30.6	30.6	82	25.8	0	0	---	0.00	30.314 
18:50	30.4	30.4	30.4	83	25.9	0	0	---	0.00	30.314 
18:55	30.3	30.3	30.3	83	25.8	0	0	---	0.00	30.314 
19:00	30.3	30.3	30.3	84	26.1	0	0	---	0.00	30.317 
19:05	30.1	30.1	30.1	84	25.9	0	0	---	0.00	30.317 
19:10	30.0	30.0	30.0	84	25.8	0	0	---	0.00	30.317 
19:15	29.8	29.8	29.8	84	25.6	0	0	---	0.00	30.317 
19:20	29.7	29.7	29.7	85	25.8	0	0	---	0.00	30.317 
19:25	29.5	29.5	29.5	85	25.6	0	0	---	0.00	30.317 
19:30	29.5	29.5	29.5	86	25.8	0	0	---	0.00	30.317 
19:35	29.4	29.4	29.4	86	25.7	0	0	---	0.00	30.317 
19:40	29.4	29.4	29.4	86	25.7	0	0	---	0.00	30.317 
19:45	29.4	29.4	29.4	87	26.0	0	0	---	0.00	30.317 
19:50	29.4	29.4	29.4	87	26.0	0	0	---	0.00	30.317 
19:55	29.4	29.4	29.4	87	26.0	0	0	---	0.00	30.317 
20:00	29.4	29.4	29.4	87	26.0	0	0	---	0.00	30.316 
20:05	29.4	29.4	29.4	87	26.0	0	0	---	0.00	30.316 
20:10	29.3	29.3	29.3	88	26.2	0	0	---	0.00	30.316 
20:15	29.3	29.3	29.3	88	26.2	0	0	---	0.00	30.308 
20:20	29.1	29.1	29.1	88	26.0	0	0	---	0.00	30.308 
20:25	29.1	29.1	29.1	88	26.0	0	0	---	0.00	30.308 
20:30	29.0	29.0	29.0	88	25.9	0	0	---	0.00	30.302 
20:35	28.8	28.8	28.8	88	25.7	0	0	---	0.00	30.302 
20:40	28.7	28.7	28.7	88	25.6	0	0	---	0.00	30.302 
20:45	28.5	28.5	28.5	88	25.4	0	0	---	0.00	30.305 
20:50	28.4	28.4	28.4	88	25.3	0	0	---	0.00	30.305 
20:55	28.2	28.2	28.2	88	25.1	0	0	---	0.00	30.305 
21:00	28.2	28.2	28.2	88	25.1	0	0	---	0.00	30.302 
21:05	28.1	28.1	28.1	89	25.3	0	0	---	0.00	30.302 
21:10	28.1	28.1	28.1	89	25.3	0	0	---	0.00	30.302 
21:15	28.1	28.1	28.1	89	25.3	0	0	---	0.00	30.296 
21:20	28.1	28.1	28.1	89	25.3	0	0	---	0.00	30.296 
21:25	28.1	28.1	28.1	90	25.6	0	0	---	0.00	30.296 
21:30	28.2	28.2	28.2	90	25.7	0	0	---	0.00	30.291 
21:35	28.4	28.4	28.4	90	25.8	0	0	---	0.00	30.291 
21:40	28.4	28.4	28.4	90	25.8	0	0	---	0.00	30.291 
21:45	28.2	28.2	28.2	90	25.7	0	0	---	0.00	30.293 
21:50	28.1	28.1	28.1	90	25.6	0	0	---	0.00	30.293 
21:55	27.9	27.9	27.9	90	25.4	0	0	---	0.00	30.293 
22:00	27.8	27.8	27.8	90	25.3	0	0	---	0.00	30.292 
22:05	27.8	27.8	27.8	90	25.3	0	0	---	0.00	30.292 
22:10	27.6	27.6	27.6	90	25.1	0	0	---	0.00	30.292 
22:15	27.6	27.6	27.6	90	25.1	0	0	---	0.00	30.281 
22:20	27.6	27.6	27.6	90	25.1	0	0	---	0.00	30.281 
22:25	27.6	27.6	27.6	90	25.1	0	0	---	0.00	30.281 
22:30	27.6	27.6	27.6	90	25.1	0	0	---	0.00	30.288 
22:35	27.6	27.6	27.6	91	25.3	0	0	---	0.00	30.288 
22:40	27.5	27.5	27.5	90	25.0	0	0	---	0.00	30.288 
22:45	27.5	27.5	27.5	91	25.2	0	0	---	0.00	30.291 
22:50	27.5	27.5	27.5	91	25.2	0	0	---	0.00	30.291 
22:55	27.3	27.3	27.3	91	25.0	0	0	---	0.00	30.291 
23:00	27.3	27.3	27.3	91	25.0	0	0	---	0.00	30.293 
23:05	27.2	27.2	27.2	91	24.9	0	0	---	0.00	30.293 
23:10	27.2	27.2	27.2	91	24.9	0	0	---	0.00	30.293 
23:15	27.2	27.2	27.2	91	24.9	0	0	---	0.00	30.292 
23:20	27.3	27.3	27.3	91	25.0	0	0	---	0.00	30.292 
23:25	27.3	27.3	27.3	91	25.0	0	0	---	0.00	30.292 
23:30	27.6	27.6	27.6	91	25.3	0	0	---	0.00	30.291 
23:35	27.8	27.8	27.8	91	25.5	0	0	---	0.00	30.291 
23:40	27.8	27.8	27.8	91	25.5	0	0	---	0.00	30.291 
23:45	27.9	27.9	27.9	91	25.6	0	0	---	0.00	30.289 
23:50	28.1	28.1	28.1	91	25.8	0	0	---	0.00	30.289 
23:55	28.1	28.1	28.1	92	26.1	0	0	---	0.00	30.289 

CoCoRaHS
IN-AL-39
A2 Web Hosting
Creative Commons License
GoDaddy
search engine by freefind advanced

loaded 2018-11-15 15:51:06 • last modified 2010-11-18 10:43:29
Privacy PolicyDisclaimer
• wx.awcolley.com is powered by PmWiki v.2002016 •
• all content (unless otherwise noted) © 2018 A W Colley